createdAt,value
2023-07-09T00:00:07.213Z,0.00
2023-07-09T00:01:07.157Z,0.00
2023-07-09T00:02:07.282Z,0.00
2023-07-09T00:03:07.215Z,0.00
2023-07-09T00:04:07.152Z,0.00
2023-07-09T00:05:07.229Z,0.00
2023-07-09T00:06:07.178Z,0.00
2023-07-09T00:07:07.096Z,0.00
2023-07-09T00:08:07.106Z,0.00
2023-07-09T00:09:07.081Z,0.00
2023-07-09T00:10:07.081Z,0.00
2023-07-09T00:11:07.055Z,0.00
2023-07-09T00:12:07.045Z,0.00
2023-07-09T00:13:07.059Z,0.00
2023-07-09T00:14:07.159Z,0.00
2023-07-09T00:15:07.164Z,0.00
2023-07-09T00:16:07.169Z,0.00
2023-07-09T00:17:07.000Z,0.00
2023-07-09T00:18:06.977Z,0.00
2023-07-09T00:19:06.975Z,0.00
2023-07-09T00:20:07.012Z,0.00
2023-07-09T00:21:06.973Z,0.00
2023-07-09T00:22:06.938Z,0.00
2023-07-09T00:23:06.924Z,0.00
2023-07-09T00:24:06.932Z,0.00
2023-07-09T00:25:06.920Z,0.00
2023-07-09T00:26:07.045Z,0.00
2023-07-09T00:27:06.874Z,0.00
2023-07-09T00:28:06.869Z,0.00
2023-07-09T00:29:06.883Z,0.00
2023-07-09T00:30:06.854Z,0.00
2023-07-09T00:31:06.882Z,0.00
2023-07-09T00:32:06.848Z,0.00
2023-07-09T00:33:06.877Z,0.00
2023-07-09T00:34:06.812Z,0.00
2023-07-09T00:35:06.813Z,0.00
2023-07-09T00:36:06.817Z,0.00
2023-07-09T00:37:06.778Z,0.00
2023-07-09T00:38:06.761Z,0.00
2023-07-09T00:39:06.764Z,0.00
2023-07-09T00:40:06.745Z,0.00
2023-07-09T00:41:06.865Z,0.00
2023-07-09T00:42:06.724Z,0.00
2023-07-09T00:43:06.723Z,0.00
2023-07-09T00:44:06.710Z,0.00
2023-07-09T00:45:06.694Z,0.00
2023-07-09T00:46:06.787Z,0.00
2023-07-09T00:47:06.701Z,0.00
2023-07-09T00:48:06.750Z,0.00
2023-07-09T00:49:06.721Z,0.00
2023-07-09T00:50:06.641Z,0.00
2023-07-09T00:51:06.640Z,0.00
2023-07-09T00:52:06.637Z,0.00
2023-07-09T00:53:06.607Z,0.00
2023-07-09T00:54:06.603Z,0.00
2023-07-09T00:55:08.986Z,0.00
2023-07-09T00:56:06.632Z,0.00
2023-07-09T00:57:06.573Z,0.00
2023-07-09T00:58:06.557Z,0.00
2023-07-09T00:59:06.549Z,0.00
2023-07-09T01:00:06.536Z,0.00
2023-07-09T01:01:06.558Z,0.00
2023-07-09T01:02:06.530Z,0.00
2023-07-09T01:03:06.526Z,0.00
2023-07-09T01:04:06.493Z,0.00
2023-07-09T01:05:06.513Z,0.00
2023-07-09T01:06:06.815Z,0.00
2023-07-09T01:07:06.477Z,0.00
2023-07-09T01:08:06.451Z,0.00
2023-07-09T01:09:06.442Z,0.00
2023-07-09T01:10:06.444Z,0.00
2023-07-09T01:11:06.407Z,0.00
2023-07-09T01:12:06.428Z,0.00
2023-07-09T01:13:06.388Z,0.00
2023-07-09T01:14:06.472Z,0.00
2023-07-09T01:15:06.373Z,0.00
2023-07-09T01:16:06.609Z,0.00
2023-07-09T01:17:06.386Z,0.00
2023-07-09T01:18:06.354Z,0.00
2023-07-09T01:19:06.355Z,0.00
2023-07-09T01:20:06.316Z,0.00
2023-07-09T01:21:06.303Z,0.00
2023-07-09T01:22:06.362Z,0.00
2023-07-09T01:23:06.327Z,0.00
2023-07-09T01:24:06.281Z,0.00
2023-07-09T01:25:06.261Z,0.00
2023-07-09T01:26:06.574Z,0.00
2023-07-09T01:27:06.232Z,0.00
2023-07-09T01:28:06.246Z,0.00
2023-07-09T01:29:06.221Z,0.00
2023-07-09T01:30:06.201Z,0.00
2023-07-09T01:31:06.231Z,0.00
2023-07-09T01:32:06.177Z,0.00
2023-07-09T01:33:06.232Z,0.00
2023-07-09T01:34:06.183Z,0.00
2023-07-09T01:35:06.235Z,0.00
2023-07-09T01:36:06.327Z,0.00
2023-07-09T01:37:06.125Z,0.00
2023-07-09T01:38:06.113Z,0.00
2023-07-09T01:39:06.138Z,0.00
2023-07-09T01:40:10.917Z,0.00
2023-07-09T01:41:07.085Z,0.00
2023-07-09T01:42:06.073Z,0.00
2023-07-09T01:43:06.074Z,0.00
2023-07-09T01:44:06.139Z,0.00
2023-07-09T01:45:06.046Z,0.00
2023-07-09T01:46:06.270Z,0.00
2023-07-09T01:47:06.099Z,0.00
2023-07-09T01:48:06.042Z,0.00
2023-07-09T01:49:06.019Z,0.00
2023-07-09T01:50:05.985Z,0.00
2023-07-09T01:51:06.027Z,0.00
2023-07-09T01:52:05.961Z,0.00
2023-07-09T01:53:05.952Z,0.00
2023-07-09T01:54:05.958Z,0.00
2023-07-09T01:55:05.936Z,0.00
2023-07-09T01:56:06.301Z,0.00
2023-07-09T01:57:05.912Z,0.00
2023-07-09T01:58:05.904Z,0.00
2023-07-09T01:59:05.955Z,0.00
2023-07-09T02:00:05.881Z,0.00
2023-07-09T02:01:05.903Z,0.00
2023-07-09T02:02:05.848Z,0.00
2023-07-09T02:03:05.959Z,0.00
2023-07-09T02:04:05.896Z,0.00
2023-07-09T02:05:05.841Z,0.00
2023-07-09T02:06:05.919Z,0.00
2023-07-09T02:07:05.821Z,0.00
2023-07-09T02:08:05.788Z,0.00
2023-07-09T02:09:05.777Z,0.00
2023-07-09T02:10:05.782Z,0.00
2023-07-09T02:11:05.775Z,0.00
2023-07-09T02:12:05.749Z,0.00
2023-07-09T02:13:05.735Z,0.00
2023-07-09T02:14:05.745Z,0.00
2023-07-09T02:15:05.738Z,0.00
2023-07-09T02:16:05.993Z,0.00
2023-07-09T02:17:05.721Z,0.00
2023-07-09T02:18:05.786Z,0.00
2023-07-09T02:19:05.678Z,0.00
2023-07-09T02:20:05.724Z,0.00
2023-07-09T02:21:05.661Z,0.00
2023-07-09T02:22:05.643Z,0.00
2023-07-09T02:23:05.640Z,0.00
2023-07-09T02:24:05.636Z,0.00
2023-07-09T02:25:05.618Z,0.00
2023-07-09T02:26:05.831Z,0.00
2023-07-09T02:27:05.590Z,0.00
2023-07-09T02:28:05.586Z,0.00
2023-07-09T02:29:05.566Z,0.00
2023-07-09T02:30:05.590Z,0.00
2023-07-09T02:31:05.564Z,0.00
2023-07-09T02:32:05.526Z,0.00
2023-07-09T02:33:05.571Z,0.00
2023-07-09T02:34:05.502Z,0.00
2023-07-09T02:35:05.524Z,0.00
2023-07-09T02:36:05.733Z,0.00
2023-07-09T02:37:05.475Z,0.00
2023-07-09T02:38:05.467Z,0.00
2023-07-09T02:39:05.499Z,0.00
2023-07-09T02:40:05.464Z,0.00
2023-07-09T02:41:05.436Z,0.00
2023-07-09T02:42:05.415Z,0.00
2023-07-09T02:43:05.483Z,0.00
2023-07-09T02:44:05.396Z,0.00
2023-07-09T02:45:05.418Z,0.00
2023-07-09T02:46:05.454Z,0.00
2023-07-09T02:47:05.385Z,0.00
2023-07-09T02:48:05.391Z,0.00
2023-07-09T02:49:05.348Z,0.00
2023-07-09T02:50:05.346Z,0.00
2023-07-09T02:51:05.333Z,0.00
2023-07-09T02:52:05.310Z,0.00
2023-07-09T02:53:05.334Z,0.00
2023-07-09T02:54:05.296Z,0.00
2023-07-09T02:55:05.325Z,0.00
2023-07-09T02:56:05.595Z,0.00
2023-07-09T02:57:05.265Z,0.00
2023-07-09T02:58:05.240Z,0.00
2023-07-09T02:59:05.267Z,0.00
2023-07-09T03:00:05.259Z,0.00
2023-07-09T03:01:05.226Z,0.00
2023-07-09T03:02:05.268Z,0.00
2023-07-09T03:03:05.282Z,0.00
2023-07-09T03:04:05.268Z,0.00
2023-07-09T03:05:05.215Z,0.00
2023-07-09T03:06:05.537Z,0.00
2023-07-09T03:07:05.168Z,0.00
2023-07-09T03:08:05.135Z,0.00
2023-07-09T03:09:05.147Z,0.00
2023-07-09T03:10:05.142Z,0.00
2023-07-09T03:11:05.143Z,0.00
2023-07-09T03:12:05.111Z,5.62
2023-07-09T03:13:05.125Z,5.62
2023-07-09T03:14:05.106Z,5.62
2023-07-09T03:15:05.067Z,5.62
2023-07-09T03:16:05.308Z,5.62
2023-07-09T03:17:05.132Z,5.62
2023-07-09T03:18:05.102Z,5.62
2023-07-09T03:19:05.044Z,5.62
2023-07-09T03:20:05.145Z,5.62
2023-07-09T03:21:05.010Z,5.62
2023-07-09T03:22:04.990Z,5.62
2023-07-09T03:23:05.020Z,5.62
2023-07-09T03:24:04.971Z,11.25
2023-07-09T03:25:04.997Z,11.25
2023-07-09T03:26:05.401Z,11.25
2023-07-09T03:27:04.999Z,11.25
2023-07-09T03:28:04.980Z,11.25
2023-07-09T03:29:04.927Z,11.25
2023-07-09T03:30:04.939Z,11.25
2023-07-09T03:31:04.896Z,11.25
2023-07-09T03:32:04.951Z,11.25
2023-07-09T03:33:04.920Z,11.25
2023-07-09T03:34:04.906Z,11.25
2023-07-09T03:35:04.875Z,11.25
2023-07-09T03:36:05.219Z,11.25
2023-07-09T03:37:04.834Z,11.25
2023-07-09T03:38:04.833Z,16.88
2023-07-09T03:39:04.811Z,16.88
2023-07-09T03:40:04.817Z,16.88
2023-07-09T03:41:04.790Z,16.88
2023-07-09T03:42:04.778Z,16.88
2023-07-09T03:43:04.811Z,16.88
2023-07-09T03:44:04.757Z,16.88
2023-07-09T03:45:04.781Z,16.88
2023-07-09T03:46:05.019Z,16.88
2023-07-09T03:47:04.828Z,16.88
2023-07-09T03:48:04.770Z,16.88
2023-07-09T03:49:04.714Z,16.88
2023-07-09T03:50:04.699Z,16.88
2023-07-09T03:51:04.709Z,16.88
2023-07-09T03:52:04.664Z,22.50
2023-07-09T03:53:04.669Z,22.50
2023-07-09T03:54:04.652Z,22.50
2023-07-09T03:55:04.636Z,22.50
2023-07-09T03:56:05.068Z,22.50
2023-07-09T03:57:04.621Z,22.50
2023-07-09T03:58:04.600Z,22.50
2023-07-09T03:59:04.614Z,22.50
2023-07-09T04:00:04.587Z,22.50
2023-07-09T04:01:04.624Z,22.50
2023-07-09T04:02:04.558Z,22.50
2023-07-09T04:03:04.569Z,22.50
2023-07-09T04:04:04.584Z,22.50
2023-07-09T04:05:04.529Z,22.50
2023-07-09T04:06:04.753Z,22.50
2023-07-09T04:07:04.518Z,22.50
2023-07-09T04:08:04.536Z,22.50
2023-07-09T04:09:04.519Z,22.50
2023-07-09T04:10:04.476Z,28.12
2023-07-09T04:11:04.513Z,28.12
2023-07-09T04:12:04.454Z,28.12
2023-07-09T04:13:04.450Z,28.12
2023-07-09T04:14:04.491Z,28.12
2023-07-09T04:15:04.485Z,28.12
2023-07-09T04:16:04.765Z,28.12
2023-07-09T04:17:04.401Z,28.12
2023-07-09T04:18:04.535Z,28.12
2023-07-09T04:19:04.383Z,28.12
2023-07-09T04:20:04.392Z,28.12
2023-07-09T04:21:04.364Z,28.12
2023-07-09T04:22:04.337Z,28.12
2023-07-09T04:23:04.335Z,28.12
2023-07-09T04:24:04.320Z,28.12
2023-07-09T04:25:04.342Z,28.12
2023-07-09T04:26:04.615Z,28.12
2023-07-09T04:27:04.366Z,28.12
2023-07-09T04:28:04.272Z,28.12
2023-07-09T04:29:04.268Z,28.12
2023-07-09T04:30:04.256Z,28.12
2023-07-09T04:31:04.321Z,28.12
2023-07-09T04:32:04.280Z,28.12
2023-07-09T04:33:04.285Z,33.75
2023-07-09T04:34:04.203Z,33.75
2023-07-09T04:35:04.199Z,33.75
2023-07-09T04:36:04.557Z,33.75
2023-07-09T04:37:04.174Z,33.75
2023-07-09T04:38:04.193Z,33.75
2023-07-09T04:39:04.176Z,33.75
2023-07-09T04:40:04.148Z,33.75
2023-07-09T04:41:04.137Z,33.75
2023-07-09T04:42:04.121Z,33.75
2023-07-09T04:43:04.138Z,33.75
2023-07-09T04:44:04.101Z,33.75
2023-07-09T04:45:04.096Z,33.75
2023-07-09T04:46:04.360Z,39.38
2023-07-09T04:47:04.093Z,39.38
2023-07-09T04:48:04.089Z,39.38
2023-07-09T04:49:04.045Z,39.38
2023-07-09T04:50:04.043Z,39.38
2023-07-09T04:51:04.060Z,39.38
2023-07-09T04:52:04.018Z,39.38
2023-07-09T04:53:04.004Z,39.38
2023-07-09T04:54:03.995Z,39.38
2023-07-09T04:55:03.983Z,39.38
2023-07-09T04:56:04.528Z,39.38
2023-07-09T04:57:03.959Z,39.38
2023-07-09T04:58:03.960Z,39.38
2023-07-09T04:59:03.940Z,39.38
2023-07-09T05:00:03.935Z,45.00
2023-07-09T05:01:03.950Z,45.00
2023-07-09T05:02:03.930Z,45.00
2023-07-09T05:03:03.976Z,45.00
2023-07-09T05:04:04.060Z,45.00
2023-07-09T05:05:03.880Z,45.00
2023-07-09T05:06:04.140Z,45.00
2023-07-09T05:07:03.866Z,45.00
2023-07-09T05:08:03.857Z,45.00
2023-07-09T05:09:03.848Z,45.00
2023-07-09T05:10:03.829Z,45.00
2023-07-09T05:11:03.837Z,45.00
2023-07-09T05:12:03.797Z,45.00
2023-07-09T05:13:03.799Z,45.00
2023-07-09T05:14:03.844Z,45.00
2023-07-09T05:15:03.773Z,45.00
2023-07-09T05:16:03.996Z,45.00
2023-07-09T05:17:03.774Z,45.00
2023-07-09T05:18:03.835Z,45.00
2023-07-09T05:19:03.768Z,45.00
2023-07-09T05:20:03.718Z,45.00
2023-07-09T05:21:03.740Z,45.00
2023-07-09T05:22:03.752Z,45.00
2023-07-09T05:23:03.677Z,45.00
2023-07-09T05:24:03.679Z,45.00
2023-07-09T05:25:03.673Z,50.62
2023-07-09T05:26:04.111Z,50.62
2023-07-09T05:27:03.652Z,50.62
2023-07-09T05:28:03.625Z,50.62
2023-07-09T05:29:03.617Z,50.62
2023-07-09T05:30:03.610Z,50.62
2023-07-09T05:31:03.609Z,50.62
2023-07-09T05:32:03.627Z,50.62
2023-07-09T05:33:03.642Z,50.62
2023-07-09T05:34:03.580Z,50.62
2023-07-09T05:35:03.622Z,50.62
2023-07-09T05:36:04.125Z,50.62
2023-07-09T05:37:03.554Z,50.62
2023-07-09T05:38:03.524Z,50.62
2023-07-09T05:39:03.524Z,50.62
2023-07-09T05:40:03.531Z,56.25
2023-07-09T05:41:03.483Z,56.25
2023-07-09T05:42:03.486Z,56.25
2023-07-09T05:43:03.468Z,56.25
2023-07-09T05:44:03.470Z,56.25
2023-07-09T05:45:03.452Z,56.25
2023-07-09T05:46:03.852Z,56.25
2023-07-09T05:47:03.488Z,56.25
2023-07-09T05:48:03.462Z,56.25
2023-07-09T05:49:03.393Z,56.25
2023-07-09T05:50:03.391Z,56.25
2023-07-09T05:51:03.413Z,56.25
2023-07-09T05:52:03.363Z,56.25
2023-07-09T05:53:03.365Z,56.25
2023-07-09T05:54:03.357Z,56.25
2023-07-09T05:55:03.333Z,56.25
2023-07-09T05:56:03.609Z,56.25
2023-07-09T05:57:03.310Z,61.88
2023-07-09T05:58:03.314Z,61.88
2023-07-09T05:59:03.288Z,61.88
2023-07-09T06:00:03.314Z,61.88
2023-07-09T06:01:03.319Z,61.88
2023-07-09T06:02:03.307Z,61.88
2023-07-09T06:03:03.387Z,61.88
2023-07-09T06:04:03.352Z,61.88
2023-07-09T06:05:03.228Z,61.88
2023-07-09T06:06:03.552Z,61.88
2023-07-09T06:07:03.227Z,61.88
2023-07-09T06:08:03.196Z,61.88
2023-07-09T06:09:03.180Z,67.50
2023-07-09T06:10:03.173Z,67.50
2023-07-09T06:11:03.226Z,73.12
2023-07-09T06:12:03.163Z,73.12
2023-07-09T06:13:03.149Z,73.12
2023-07-09T06:14:03.205Z,73.12
2023-07-09T06:15:03.126Z,73.12
2023-07-09T06:16:03.488Z,73.12
2023-07-09T06:17:03.410Z,78.75
2023-07-09T06:18:03.128Z,78.75
2023-07-09T06:19:03.089Z,84.38
2023-07-09T06:20:03.076Z,84.38
2023-07-09T06:21:03.084Z,90.00
2023-07-09T06:22:03.045Z,84.38
2023-07-09T06:23:03.054Z,90.00
2023-07-09T06:24:03.031Z,78.75
2023-07-09T06:25:03.020Z,78.75
2023-07-09T06:26:03.379Z,78.75
2023-07-09T06:27:03.030Z,78.75
2023-07-09T06:28:02.988Z,78.75
2023-07-09T06:29:02.979Z,78.75
2023-07-09T06:30:02.962Z,78.75
2023-07-09T06:31:03.016Z,78.75
2023-07-09T06:32:03.001Z,84.38
2023-07-09T06:33:02.948Z,90.00
2023-07-09T06:34:02.932Z,90.00
2023-07-09T06:35:02.920Z,78.75
2023-07-09T06:36:03.301Z,78.75
2023-07-09T06:37:02.882Z,78.75
2023-07-09T06:38:02.913Z,78.75
2023-07-09T06:39:02.902Z,78.75
2023-07-09T06:40:02.852Z,78.75
2023-07-09T06:41:02.850Z,78.75
2023-07-09T06:42:02.870Z,84.38
2023-07-09T06:43:02.816Z,84.38
2023-07-09T06:44:02.813Z,84.38
2023-07-09T06:45:02.808Z,84.38
2023-07-09T06:46:03.196Z,84.38
2023-07-09T06:47:02.835Z,84.38
2023-07-09T06:48:02.858Z,84.38
2023-07-09T06:49:02.763Z,84.38
2023-07-09T06:50:02.769Z,90.00
2023-07-09T06:51:02.744Z,90.00
2023-07-09T06:52:02.748Z,90.00
2023-07-09T06:53:02.712Z,95.62
2023-07-09T06:54:02.706Z,95.62
2023-07-09T06:55:02.724Z,90.00
2023-07-09T06:56:03.197Z,90.00
2023-07-09T06:57:02.705Z,90.00
2023-07-09T06:58:02.668Z,90.00
2023-07-09T06:59:02.658Z,90.00
2023-07-09T07:00:02.639Z,95.62
2023-07-09T07:01:02.646Z,90.00
2023-07-09T07:02:02.643Z,90.00
2023-07-09T07:03:02.716Z,90.00
2023-07-09T07:04:02.641Z,84.38
2023-07-09T07:05:02.622Z,84.38
2023-07-09T07:06:02.847Z,90.00
2023-07-09T07:07:02.564Z,90.00
2023-07-09T07:08:02.589Z,90.00
2023-07-09T07:09:02.542Z,95.62
2023-07-09T07:10:02.561Z,101.25
2023-07-09T07:11:02.585Z,112.50
2023-07-09T07:12:02.506Z,101.25
2023-07-09T07:13:02.497Z,95.62
2023-07-09T07:14:02.556Z,95.62
2023-07-09T07:15:02.471Z,95.62
2023-07-09T07:16:02.797Z,95.62
2023-07-09T07:17:02.489Z,101.25
2023-07-09T07:18:02.517Z,101.25
2023-07-09T07:19:02.442Z,101.25
2023-07-09T07:20:02.434Z,118.12
2023-07-09T07:21:02.441Z,123.75
2023-07-09T07:22:02.401Z,135.00
2023-07-09T07:23:02.412Z,213.75
2023-07-09T07:24:02.380Z,213.75
2023-07-09T07:25:02.366Z,303.75
2023-07-09T07:26:03.073Z,320.62
2023-07-09T07:27:02.362Z,331.88
2023-07-09T07:28:02.357Z,315.00
2023-07-09T07:29:02.347Z,331.88
2023-07-09T07:30:02.366Z,315.00
2023-07-09T07:31:02.311Z,286.88
2023-07-09T07:32:02.364Z,275.62
2023-07-09T07:33:02.346Z,241.88
2023-07-09T07:34:02.284Z,208.12
2023-07-09T07:35:02.260Z,202.50
2023-07-09T07:37:02.260Z,196.88
2023-07-09T07:38:02.259Z,185.62
2023-07-09T07:39:02.227Z,163.12
2023-07-09T07:40:02.280Z,151.88
2023-07-09T07:41:02.197Z,146.25
2023-07-09T07:42:02.689Z,146.25
2023-07-09T07:43:02.240Z,146.25
2023-07-09T07:44:02.175Z,146.25
2023-07-09T07:45:02.176Z,151.88
2023-07-09T07:46:02.866Z,157.50
2023-07-09T07:47:02.158Z,157.50
2023-07-09T07:48:02.170Z,151.88
2023-07-09T07:49:02.143Z,168.75
2023-07-09T07:50:02.114Z,168.75
2023-07-09T07:51:02.105Z,185.62
2023-07-09T07:52:02.117Z,196.88
2023-07-09T07:53:02.074Z,191.25
2023-07-09T07:54:02.064Z,191.25
2023-07-09T07:55:02.066Z,180.00
2023-07-09T07:56:02.483Z,180.00
2023-07-09T07:57:02.050Z,191.25
2023-07-09T07:58:02.034Z,191.25
2023-07-09T07:59:02.026Z,185.62
2023-07-09T08:00:03.819Z,191.25
2023-07-09T08:01:02.297Z,185.62
2023-07-09T08:02:02.204Z,191.25
2023-07-09T08:03:02.041Z,180.00
2023-07-09T08:04:02.135Z,185.62
2023-07-09T08:05:02.037Z,191.25
2023-07-09T08:06:02.798Z,191.25
2023-07-09T08:07:02.041Z,196.88
2023-07-09T08:08:02.013Z,202.50
2023-07-09T08:09:01.926Z,230.62
2023-07-09T08:10:01.984Z,230.62
2023-07-09T08:11:01.879Z,241.88
2023-07-09T08:12:01.891Z,275.62
2023-07-09T08:13:01.871Z,281.25
2023-07-09T08:14:02.028Z,270.00
2023-07-09T08:15:01.888Z,298.12
2023-07-09T08:16:02.284Z,343.12
2023-07-09T08:17:01.829Z,438.75
2023-07-09T08:18:02.012Z,472.50
2023-07-09T08:19:01.848Z,506.25
2023-07-09T08:20:01.952Z,562.50
2023-07-09T08:21:01.780Z,652.50
2023-07-09T08:22:01.766Z,658.12
2023-07-09T08:23:01.751Z,748.12
2023-07-09T08:24:01.771Z,298.12
2023-07-09T08:25:01.731Z,658.12
2023-07-09T08:26:02.284Z,376.88
2023-07-09T08:27:01.718Z,360.00
2023-07-09T08:28:01.712Z,376.88
2023-07-09T08:29:01.721Z,405.00
2023-07-09T08:30:01.688Z,798.75
2023-07-09T08:31:01.962Z,2525.62
2023-07-09T08:32:01.729Z,3043.12
2023-07-09T08:33:01.722Z,2778.75
2023-07-09T08:34:01.682Z,1288.12
2023-07-09T08:36:01.625Z,838.12
2023-07-09T08:37:01.622Z,1530.00
2023-07-09T08:38:01.632Z,2120.62
2023-07-09T08:39:01.627Z,1265.62
2023-07-09T08:40:01.610Z,776.25
2023-07-09T08:41:01.964Z,1125.00
2023-07-09T08:42:03.720Z,1389.38
2023-07-09T08:43:02.381Z,1608.75
2023-07-09T08:44:01.612Z,1816.88
2023-07-09T08:45:01.532Z,3138.75
2023-07-09T08:46:01.531Z,3791.25
2023-07-09T08:47:01.526Z,4066.88
2023-07-09T08:48:01.579Z,3976.88
2023-07-09T08:49:01.493Z,4246.88
2023-07-09T08:50:01.538Z,4235.62
2023-07-09T08:51:01.731Z,4246.88
2023-07-09T08:52:01.467Z,3785.62
2023-07-09T08:53:01.458Z,2480.62
2023-07-09T08:54:01.443Z,2081.25
2023-07-09T08:55:01.434Z,1946.25
2023-07-09T08:56:01.525Z,1321.88
2023-07-09T08:57:01.415Z,781.88
2023-07-09T08:58:01.412Z,1687.50
2023-07-09T08:59:01.418Z,2092.50
2023-07-09T09:00:01.416Z,1980.00
2023-07-09T09:01:01.540Z,1518.75
2023-07-09T09:02:01.513Z,961.88
2023-07-09T09:03:01.504Z,635.62
2023-07-09T09:04:01.473Z,2559.38
2023-07-09T09:05:01.350Z,2767.50
2023-07-09T09:06:01.328Z,939.38
2023-07-09T09:07:01.334Z,759.38
2023-07-09T09:08:04.616Z,1091.25
2023-07-09T09:09:01.299Z,731.25
2023-07-09T09:10:01.300Z,219.38
2023-07-09T09:11:01.621Z,315.00
2023-07-09T09:12:01.311Z,523.12
2023-07-09T09:13:01.246Z,1231.88
2023-07-09T09:14:01.321Z,2238.75
2023-07-09T09:15:01.239Z,2649.38
2023-07-09T09:16:01.249Z,2598.75
2023-07-09T09:17:01.223Z,2553.75
2023-07-09T09:18:01.260Z,2019.38
2023-07-09T09:19:01.222Z,1603.12
2023-07-09T09:20:01.169Z,1839.38
2023-07-09T09:21:01.394Z,2396.25
2023-07-09T09:22:02.406Z,2356.88
2023-07-09T09:23:01.146Z,1704.38
2023-07-09T09:24:01.138Z,1653.75
2023-07-09T09:25:01.124Z,3425.62
2023-07-09T09:26:13.753Z,4134.38
2023-07-09T09:27:02.103Z,4190.62
2023-07-09T09:28:01.097Z,4128.75
2023-07-09T09:29:01.079Z,4117.50
2023-07-09T09:30:01.095Z,4201.88
2023-07-09T09:31:01.284Z,4168.12
2023-07-09T09:32:01.097Z,4140.00
2023-07-09T09:33:01.124Z,4145.62
2023-07-09T09:34:01.040Z,4151.25
2023-07-09T09:35:01.046Z,4128.75
2023-07-09T09:36:01.043Z,3841.88
2023-07-09T09:37:01.024Z,2418.75
2023-07-09T09:38:00.992Z,1726.88
2023-07-09T09:39:01.000Z,2154.38
2023-07-09T09:41:01.099Z,1794.38
2023-07-09T09:42:00.960Z,1243.12
2023-07-09T09:43:00.949Z,731.25
2023-07-09T09:44:00.932Z,961.88
2023-07-09T09:45:00.928Z,2160.00
2023-07-09T09:46:00.960Z,2137.50
2023-07-09T09:47:01.489Z,1434.38
2023-07-09T09:48:00.956Z,309.38
2023-07-09T09:49:00.882Z,421.88
2023-07-09T09:50:00.878Z,3189.38
2023-07-09T09:51:01.018Z,3864.38
2023-07-09T09:52:00.855Z,1473.75
2023-07-09T09:53:00.844Z,635.62
2023-07-09T09:54:00.838Z,376.88
2023-07-09T09:55:00.836Z,1158.75
2023-07-09T09:56:00.842Z,2120.62
2023-07-09T09:57:00.824Z,2857.50
2023-07-09T09:58:00.807Z,4550.62
2023-07-09T09:59:00.805Z,4545.00
2023-07-09T10:00:00.834Z,4083.75
2023-07-09T10:01:00.972Z,3127.50
2023-07-09T10:02:00.765Z,2593.12
2023-07-09T10:03:00.957Z,3656.25
2023-07-09T10:04:00.740Z,1608.75
2023-07-09T10:05:00.746Z,1136.25
2023-07-09T10:06:00.751Z,1170.00
2023-07-09T10:07:00.740Z,2536.88
2023-07-09T10:08:00.707Z,2356.88
2023-07-09T10:09:00.695Z,2210.62
2023-07-09T10:10:00.675Z,2120.62
2023-07-09T10:11:00.833Z,1063.12
2023-07-09T10:12:00.662Z,258.75
2023-07-09T10:13:00.653Z,281.25
2023-07-09T10:14:00.689Z,219.38
2023-07-09T10:15:00.646Z,225.00
2023-07-09T10:16:00.625Z,236.25
2023-07-09T10:17:00.640Z,196.88
2023-07-09T10:18:00.688Z,202.50
2023-07-09T10:19:00.723Z,196.88
2023-07-09T10:20:00.580Z,281.25
2023-07-09T10:21:00.669Z,270.00
2023-07-09T10:22:00.595Z,196.88
2023-07-09T10:23:00.589Z,185.62
2023-07-09T10:24:00.549Z,185.62
2023-07-09T10:25:00.558Z,185.62
2023-07-09T10:26:00.526Z,185.62
2023-07-09T10:27:00.536Z,185.62
2023-07-09T10:28:00.538Z,191.25
2023-07-09T10:29:00.504Z,196.88
2023-07-09T10:30:11.928Z,196.88
2023-07-09T10:31:01.937Z,196.88
2023-07-09T10:32:00.492Z,202.50
2023-07-09T10:33:00.477Z,202.50
2023-07-09T10:34:00.450Z,208.12
2023-07-09T10:35:00.428Z,213.75
2023-07-09T10:36:00.560Z,1411.88
2023-07-09T10:37:00.433Z,2970.00
2023-07-09T10:38:00.397Z,3701.25
2023-07-09T10:39:00.536Z,3768.75
2023-07-09T10:40:00.432Z,4494.38
2023-07-09T10:41:06.520Z,4460.62
2023-07-09T10:42:01.377Z,4494.38
2023-07-09T10:43:00.351Z,4477.50
2023-07-09T10:44:00.332Z,4505.62
2023-07-09T10:45:00.375Z,4578.75
2023-07-09T10:46:00.321Z,4595.62
2023-07-09T10:47:00.559Z,4612.50
2023-07-09T10:48:00.343Z,4522.50
2023-07-09T10:49:00.299Z,2835.00
2023-07-09T10:50:00.277Z,635.62
2023-07-09T10:51:00.306Z,1659.38
2023-07-09T10:52:00.282Z,1361.25
2023-07-09T10:53:00.282Z,4410.00
2023-07-09T10:54:00.236Z,4590.00
2023-07-09T10:55:00.249Z,4021.88
2023-07-09T10:56:00.218Z,2340.00
2023-07-09T10:57:00.250Z,2947.50
2023-07-09T10:58:00.207Z,2317.50
2023-07-09T10:59:00.193Z,2581.88
2023-07-09T11:00:00.203Z,3695.62
2023-07-09T11:01:00.180Z,2430.00
2023-07-09T11:02:00.276Z,2278.12
2023-07-09T11:03:00.244Z,4078.12
2023-07-09T11:04:00.200Z,3521.25
2023-07-09T11:05:00.142Z,2941.88
2023-07-09T11:06:00.125Z,2300.62
2023-07-09T11:07:00.119Z,337.50
2023-07-09T11:08:00.143Z,877.50
2023-07-09T11:09:00.097Z,298.12
2023-07-09T11:10:00.204Z,275.62
2023-07-09T11:11:00.101Z,270.00
2023-07-09T11:12:00.067Z,264.38
2023-07-09T11:13:00.081Z,613.12
2023-07-09T11:14:00.050Z,472.50
2023-07-09T11:15:00.040Z,472.50
2023-07-09T11:16:00.110Z,270.00
2023-07-09T11:17:00.028Z,545.62
2023-07-09T11:18:00.026Z,596.25
2023-07-09T11:19:00.008Z,478.12
2023-07-09T11:20:00.006Z,765.00
2023-07-09T11:20:59.981Z,2221.88
2023-07-09T11:22:00.004Z,2638.12
2023-07-09T11:22:59.991Z,2306.25
2023-07-09T11:23:59.950Z,4005.00
2023-07-09T11:24:59.961Z,4066.88
2023-07-09T11:25:59.941Z,4179.38
2023-07-09T11:26:59.938Z,4213.12
2023-07-09T11:27:59.963Z,4241.25
2023-07-09T11:28:59.905Z,2986.88
2023-07-09T11:29:59.901Z,2356.88
2023-07-09T11:30:59.888Z,1603.12
2023-07-09T11:31:59.962Z,2756.25
2023-07-09T11:33:13.759Z,3082.50
2023-07-09T11:34:00.857Z,759.38
2023-07-09T11:34:59.840Z,4381.88
2023-07-09T11:35:59.855Z,421.88
2023-07-09T11:36:59.885Z,646.88
2023-07-09T11:37:59.827Z,607.50
2023-07-09T11:38:59.821Z,731.25
2023-07-09T11:39:59.811Z,534.38
2023-07-09T11:40:59.809Z,438.75
2023-07-09T11:41:59.797Z,658.12
2023-07-09T11:42:59.789Z,298.12
2023-07-09T11:43:59.808Z,697.50
2023-07-09T11:44:59.739Z,1456.88
2023-07-09T11:45:59.887Z,556.88
2023-07-09T11:46:59.802Z,270.00
2023-07-09T11:47:59.794Z,236.25
2023-07-09T11:48:59.715Z,433.12
2023-07-09T11:49:59.704Z,315.00
2023-07-09T11:50:59.696Z,258.75
2023-07-09T11:51:59.695Z,230.62
2023-07-09T11:52:59.679Z,253.12
2023-07-09T11:53:59.685Z,1738.12
2023-07-09T11:54:59.652Z,275.62
2023-07-09T11:55:59.684Z,343.12
2023-07-09T11:56:59.685Z,1788.75
2023-07-09T11:57:59.620Z,888.75
2023-07-09T11:58:59.655Z,618.75
2023-07-09T11:59:59.614Z,900.00
2023-07-09T12:00:59.676Z,568.12
2023-07-09T12:01:59.667Z,585.00
2023-07-09T12:02:59.622Z,433.12
2023-07-09T12:03:59.654Z,225.00
2023-07-09T12:04:59.553Z,270.00
2023-07-09T12:05:59.540Z,213.75
2023-07-09T12:06:59.536Z,247.50
2023-07-09T12:07:59.529Z,208.12
2023-07-09T12:08:59.584Z,230.62
2023-07-09T12:09:59.502Z,208.12
2023-07-09T12:10:59.505Z,219.38
2023-07-09T12:11:59.500Z,202.50
2023-07-09T12:12:59.476Z,208.12
2023-07-09T12:13:59.532Z,241.88
2023-07-09T12:14:59.487Z,208.12
2023-07-09T12:15:59.497Z,208.12
2023-07-09T12:16:59.428Z,236.25
2023-07-09T12:17:59.489Z,253.12
2023-07-09T12:18:59.445Z,658.12
2023-07-09T12:19:59.418Z,399.38
2023-07-09T12:20:59.414Z,1642.50
2023-07-09T12:21:59.399Z,2182.50
2023-07-09T12:22:59.381Z,1186.88
2023-07-09T12:23:59.358Z,1608.75
2023-07-09T12:24:59.346Z,354.38
2023-07-09T12:25:59.340Z,275.62
2023-07-09T12:26:59.370Z,236.25
2023-07-09T12:27:59.315Z,393.75
2023-07-09T12:28:59.308Z,438.75
2023-07-09T12:29:59.330Z,455.62
2023-07-09T12:30:59.330Z,601.88
2023-07-09T12:31:59.347Z,1119.38
2023-07-09T12:32:59.305Z,579.38
2023-07-09T12:33:59.589Z,230.62
2023-07-09T12:34:59.253Z,253.12
2023-07-09T12:35:59.238Z,225.00
2023-07-09T12:36:59.252Z,911.25
2023-07-09T12:37:59.242Z,523.12
2023-07-09T12:38:59.211Z,1575.00
2023-07-09T12:39:59.194Z,1063.12
2023-07-09T12:40:59.213Z,354.38
2023-07-09T12:41:59.208Z,3251.25
2023-07-09T12:42:59.174Z,3217.50
2023-07-09T12:43:59.149Z,3228.75
2023-07-09T12:44:59.185Z,3200.62
2023-07-09T12:45:59.199Z,3206.25
2023-07-09T12:46:59.159Z,3228.75